Gujrat Weather



Gujrat's Current Weather

Temprature 18o mist

mist

Rain: 0 %

Min Temprature18o
Max Temprature18o
Humidity82
Wind Speed2.1 m/h
Sun Rise06:34:57
Sun Set17:58:30
Current Time: 27-Feb-2020 00:36:25
Lat/Lon: 32.57, 74.08




Gujrat's Geo Location



Gujrat's Weather Forecast

Time Overall Temp Min Temp Max Temp Humidity Wind Speed Rain
27-Feb-2020 (Thu)
02:00:00 broken clouds 16.660 14.080 16.660 55 2.21 m/h 0 %
05:00:00 overcast clouds 14.880 12.950 14.880 57 1.28 m/h 0 %
08:00:00 overcast clouds 17.570 16.280 17.570 48 1.4 m/h 0 %
11:00:00 overcast clouds 25.130 24.490 25.130 31 1.5 m/h 0 %
14:00:00 broken clouds 28.410 28.410 28.410 23 0.66 m/h 0 %
17:00:00 scattered clouds 25.780 25.780 25.780 31 0.85 m/h 0 %
20:00:00 clear sky 18.310 18.310 18.310 43 1.87 m/h 0 %
23:00:00 clear sky 16.590 16.590 16.590 45 3.67 m/h 0 %
28-Feb-2020 (Fri)
02:00:00 clear sky 13.930 13.930 13.930 55 2.03 m/h 0 %
05:00:00 clear sky 13.020 13.020 13.020 59 2.15 m/h 0 %
08:00:00 overcast clouds 16.260 16.260 16.260 52 1.32 m/h 0 %
11:00:00 overcast clouds 22.650 22.650 22.650 36 2.83 m/h 0 %
14:00:00 broken clouds 27.160 27.160 27.160 27 2.23 m/h 0 %
17:00:00 overcast clouds 24.730 24.730 24.730 37 1.48 m/h 0 %
20:00:00 light rain 17.980 17.980 17.980 63 1.53 m/h 75 %
23:00:00 light rain 15.990 15.990 15.990 77 2.9 m/h 88 %
29-Feb-2020 (Sat)
02:00:00 light rain 15.790 15.790 15.790 79 0.81 m/h 44 %
05:00:00 light rain 15.340 15.340 15.340 76 1.89 m/h 62 %
08:00:00 light rain 16.520 16.520 16.520 78 2.15 m/h 13 %
11:00:00 light rain 24.120 24.120 24.120 45 4.22 m/h 38 %
14:00:00 clear sky 27.240 27.240 27.240 32 5.4 m/h 0 %
17:00:00 light rain 21.430 21.430 21.430 53 5.36 m/h 69 %
20:00:00 light rain 14.550 14.550 14.550 82 2.44 m/h 81 %
23:00:00 overcast clouds 13.940 13.940 13.940 79 1.9 m/h 0 %
01-Mar-2020 (Sun)
02:00:00 scattered clouds 13.090 13.090 13.090 79 2.23 m/h 0 %
05:00:00 few clouds 12.470 12.470 12.470 76 2.12 m/h 0 %
08:00:00 clear sky 16.000 16.000 16.000 73 2.54 m/h 0 %
11:00:00 clear sky 25.270 25.270 25.270 35 1.96 m/h 0 %
14:00:00 clear sky 28.440 28.440 28.440 28 1.1 m/h 0 %
17:00:00 clear sky 26.130 26.130 26.130 34 1.87 m/h 0 %
20:00:00 clear sky 18.090 18.090 18.090 56 2.09 m/h 0 %
23:00:00 clear sky 16.270 16.270 16.270 55 1.89 m/h 0 %
02-Mar-2020 (Mon)
02:00:00 clear sky 15.490 15.490 15.490 58 2.21 m/h 0 %
05:00:00 clear sky 13.870 13.870 13.870 62 1.09 m/h 0 %
08:00:00 clear sky 17.810 17.810 17.810 51 0.97 m/h 0 %
11:00:00 clear sky 26.740 26.740 26.740 32 1.16 m/h 0 %
14:00:00 scattered clouds 28.750 28.750 28.750 23 2.02 m/h 0 %
17:00:00 scattered clouds 26.920 26.920 26.920 28 2.43 m/h 0 %
20:00:00 clear sky 18.190 18.190 18.190 46 1.34 m/h 0 %
23:00:00 clear sky 16.910 16.910 16.910 47 2.72 m/h 0 %

Famous Cities (61)